sensor_id;sensor_type;location;lat;lon;timestamp;pressure;altitude;pressure_sealevel;temperature;humidity
12879;BME280;20617;49.476;10.986;2024-02-04T00:01:29;99160.38;;;8.87;100.00
12879;BME280;20617;49.476;10.986;2024-02-04T00:03:30;99156.97;;;8.84;100.00
12879;BME280;20617;49.476;10.986;2024-02-04T00:05:31;99158.81;;;8.79;100.00
12879;BME280;20617;49.476;10.986;2024-02-04T00:07:31;99157.84;;;8.83;100.00
12879;BME280;20617;49.476;10.986;2024-02-04T00:09:32;99154.47;;;8.80;100.00
12879;BME280;20617;49.476;10.986;2024-02-04T00:11:33;99168.28;;;8.80;100.00
12879;BME280;20617;49.476;10.986;2024-02-04T00:13:34;99174.47;;;8.75;100.00
12879;BME280;20617;49.476;10.986;2024-02-04T00:15:37;99168.56;;;8.67;100.00
12879;BME280;20617;49.476;10.986;2024-02-04T00:17:38;99171.88;;;8.75;100.00
12879;BME280;20617;49.476;10.986;2024-02-04T00:19:38;99179.63;;;8.76;100.00
12879;BME280;20617;49.476;10.986;2024-02-04T00:21:39;99169.25;;;8.76;100.00
12879;BME280;20617;49.476;10.986;2024-02-04T00:23:40;99160.63;;;8.76;100.00
12879;BME280;20617;49.476;10.986;2024-02-04T00:25:40;99161.59;;;8.70;100.00
12879;BME280;20617;49.476;10.986;2024-02-04T00:27:41;99160.50;;;8.80;100.00
12879;BME280;20617;49.476;10.986;2024-02-04T00:29:42;99151.94;;;8.77;100.00
12879;BME280;20617;49.476;10.986;2024-02-04T00:31:45;99151.09;;;8.76;100.00
12879;BME280;20617;49.476;10.986;2024-02-04T00:33:46;99147.78;;;8.68;100.00
12879;BME280;20617;49.476;10.986;2024-02-04T00:35:46;99144.34;;;8.68;100.00
12879;BME280;20617;49.476;10.986;2024-02-04T00:37:47;99151.03;;;8.78;100.00
12879;BME280;20617;49.476;10.986;2024-02-04T00:39:48;99145.81;;;8.79;100.00
12879;BME280;20617;49.476;10.986;2024-02-04T00:41:48;99149.34;;;8.75;100.00
12879;BME280;20617;49.476;10.986;2024-02-04T00:43:49;99149.41;;;8.74;100.00
12879;BME280;20617;49.476;10.986;2024-02-04T00:45:50;99147.66;;;8.74;100.00
12879;BME280;20617;49.476;10.986;2024-02-04T00:47:53;99155.50;;;8.73;100.00
12879;BME280;20617;49.476;10.986;2024-02-04T00:49:54;99150.13;;;8.80;100.00
12879;BME280;20617;49.476;10.986;2024-02-04T00:51:55;99144.09;;;8.80;100.00
12879;BME280;20617;49.476;10.986;2024-02-04T00:53:55;99149.25;;;8.81;100.00
12879;BME280;20617;49.476;10.986;2024-02-04T00:55:56;99141.41;;;8.83;100.00
12879;BME280;20617;49.476;10.986;2024-02-04T00:57:57;99147.34;;;8.90;100.00
12879;BME280;20617;49.476;10.986;2024-02-04T00:59:57;99149.34;;;8.75;100.00
12879;BME280;20617;49.476;10.986;2024-02-04T01:01:58;99143.94;;;8.88;100.00
12879;BME280;20617;49.476;10.986;2024-02-04T01:04:02;99137.84;;;8.87;100.00
12879;BME280;20617;49.476;10.986;2024-02-04T01:06:03;99149.13;;;8.88;100.00
12879;BME280;20617;49.476;10.986;2024-02-04T01:08:04;99146.69;;;8.78;100.00
12879;BME280;20617;49.476;10.986;2024-02-04T01:10:06;99154.63;;;8.72;100.00
12879;BME280;20617;49.476;10.986;2024-02-04T01:12:08;99152.78;;;8.79;100.00
12879;BME280;20617;49.476;10.986;2024-02-04T01:14:08;99160.75;;;8.70;100.00
12879;BME280;20617;49.476;10.986;2024-02-04T01:16:09;99152.84;;;8.76;100.00
12879;BME280;20617;49.476;10.986;2024-02-04T01:18:10;99152.78;;;8.79;100.00
12879;BME280;20617;49.476;10.986;2024-02-04T01:20:13;99150.13;;;8.80;100.00
12879;BME280;20617;49.476;10.986;2024-02-04T01:22:14;99147.50;;;8.82;100.00
12879;BME280;20617;49.476;10.986;2024-02-04T01:24:15;99151.88;;;8.78;100.00
12879;BME280;20617;49.476;10.986;2024-02-04T01:26:16;99153.69;;;8.76;100.00
12879;BME280;20617;49.476;10.986;2024-02-04T01:28:16;99143.38;;;8.73;100.00
12879;BME280;20617;49.476;10.986;2024-02-04T01:30:17;99139.97;;;8.70;100.00
12879;BME280;20617;49.476;10.986;2024-02-04T01:32:18;99134.88;;;8.65;100.00
12879;BME280;20617;49.476;10.986;2024-02-04T01:34:19;99129.47;;;8.76;100.00
12879;BME280;20617;49.476;10.986;2024-02-04T01:36:22;99119.66;;;8.90;100.00
12879;BME280;20617;49.476;10.986;2024-02-04T01:38:23;99129.47;;;8.74;100.00
12879;BME280;20617;49.476;10.986;2024-02-04T01:40:24;99133.06;;;8.69;100.00
12879;BME280;20617;49.476;10.986;2024-02-04T01:42:25;99124.41;;;8.70;100.00
12879;BME280;20617;49.476;10.986;2024-02-04T01:44:25;99131.19;;;8.75;100.00
12879;BME280;20617;49.476;10.986;2024-02-04T01:46:26;99120.69;;;8.81;100.00
12879;BME280;20617;49.476;10.986;2024-02-04T01:48:27;99129.28;;;8.85;100.00
12879;BME280;20617;49.476;10.986;2024-02-04T01:50:28;99120.59;;;8.86;100.00
12879;BME280;20617;49.476;10.986;2024-02-04T01:52:33;99124.22;;;8.79;100.00
12879;BME280;20617;49.476;10.986;2024-02-04T01:54:37;99124.09;;;8.83;100.00
12879;BME280;20617;49.476;10.986;2024-02-04T01:56:38;99125.94;;;8.78;100.00
12879;BME280;20617;49.476;10.986;2024-02-04T01:58:40;99116.41;;;8.79;100.00
12879;BME280;20617;49.476;10.986;2024-02-04T02:00:41;99118.97;;;8.80;100.00
12879;BME280;20617;49.476;10.986;2024-02-04T02:02:41;99120.63;;;8.84;100.00
12879;BME280;20617;49.476;10.986;2024-02-04T02:04:43;99118.09;;;8.81;100.00
12879;BME280;20617;49.476;10.986;2024-02-04T02:06:44;99127.78;;;8.73;100.00
12879;BME280;20617;49.476;10.986;2024-02-04T02:08:49;99133.00;;;8.72;100.00
12879;BME280;20617;49.476;10.986;2024-02-04T02:10:51;99128.63;;;8.74;100.00
12879;BME280;20617;49.476;10.986;2024-02-04T02:13:00;99133.81;;;8.74;100.00
12879;BME280;20617;49.476;10.986;2024-02-04T02:15:10;99134.63;;;8.77;100.00
12879;BME280;20617;49.476;10.986;2024-02-04T02:17:13;99126.13;;;8.69;100.00
12879;BME280;20617;49.476;10.986;2024-02-04T02:19:28;99143.56;;;8.64;100.00
12879;BME280;20617;49.476;10.986;2024-02-04T02:24:04;99135.66;;;8.69;100.00
12879;BME280;20617;49.476;10.986;2024-02-04T02:26:13;99133.81;;;8.74;100.00
12879;BME280;20617;49.476;10.986;2024-02-04T02:28:14;99134.81;;;8.68;100.00
12879;BME280;20617;49.476;10.986;2024-02-04T02:30:15;99133.25;;;8.59;100.00
12879;BME280;20617;49.476;10.986;2024-02-04T02:32:16;99137.47;;;8.64;100.00
12879;BME280;20617;49.476;10.986;2024-02-04T02:34:17;99140.19;;;8.57;100.00
12879;BME280;20617;49.476;10.986;2024-02-04T02:36:21;99132.47;;;8.56;100.00
12879;BME280;20617;49.476;10.986;2024-02-04T02:38:26;99138.47;;;8.58;100.00
12879;BME280;20617;49.476;10.986;2024-02-04T02:40:34;99137.00;;;8.45;100.00
12879;BME280;20617;49.476;10.986;2024-02-04T02:42:42;99137.00;;;8.45;100.00
12879;BME280;20617;49.476;10.986;2024-02-04T02:44:43;99144.00;;;8.41;100.00
12879;BME280;20617;49.476;10.986;2024-02-04T02:46:45;99140.50;;;8.42;100.00
12879;BME280;20617;49.476;10.986;2024-02-04T02:48:46;99157.63;;;8.51;100.00
12879;BME280;20617;49.476;10.986;2024-02-04T02:50:47;99157.72;;;8.46;100.00
12879;BME280;20617;49.476;10.986;2024-02-04T02:52:48;99157.81;;;8.42;100.00
12879;BME280;20617;49.476;10.986;2024-02-04T02:54:49;99174.38;;;8.33;100.00
12879;BME280;20617;49.476;10.986;2024-02-04T02:56:49;99162.28;;;8.32;100.00
12879;BME280;20617;49.476;10.986;2024-02-04T02:58:53;99177.78;;;8.36;100.00
12879;BME280;20617;49.476;10.986;2024-02-04T03:00:54;99167.38;;;8.39;100.00
12879;BME280;20617;49.476;10.986;2024-02-04T03:02:54;99157.00;;;8.36;100.00
12879;BME280;20617;49.476;10.986;2024-02-04T03:04:55;99157.09;;;8.32;100.00
12879;BME280;20617;49.476;10.986;2024-02-04T03:06:56;99160.69;;;8.25;100.00
12879;BME280;20617;49.476;10.986;2024-02-04T03:08:56;99159.78;;;8.26;100.00
12879;BME280;20617;49.476;10.986;2024-02-04T03:10:57;99155.38;;;8.31;100.00
12879;BME280;20617;49.476;10.986;2024-02-04T03:12:58;99152.91;;;8.25;100.00
12879;BME280;20617;49.476;10.986;2024-02-04T03:15:01;99153.81;;;8.22;100.00
12879;BME280;20617;49.476;10.986;2024-02-04T03:17:02;99145.19;;;8.20;100.00
12879;BME280;20617;49.476;10.986;2024-02-04T03:19:05;99158.13;;;8.23;100.00
12879;BME280;20617;49.476;10.986;2024-02-04T03:21:12;99147.84;;;8.17;100.00
12879;BME280;20617;49.476;10.986;2024-02-04T03:23:13;99148.63;;;8.22;100.00
12879;BME280;20617;49.476;10.986;2024-02-04T03:25:13;99156.41;;;8.22;100.00
12879;BME280;20617;49.476;10.986;2024-02-04T03:27:17;99160.69;;;8.26;100.00
12879;BME280;20617;49.476;10.986;2024-02-04T03:29:19;99148.56;;;8.27;100.00
12879;BME280;20617;49.476;10.986;2024-02-04T03:31:23;99141.56;;;8.30;100.00
12879;BME280;20617;49.476;10.986;2024-02-04T03:33:24;99145.19;;;8.22;100.00
12879;BME280;20617;49.476;10.986;2024-02-04T03:35:25;99148.50;;;8.30;100.00
12879;BME280;20617;49.476;10.986;2024-02-04T03:37:26;99148.41;;;8.34;100.00
12879;BME280;20617;49.476;10.986;2024-02-04T03:39:26;99147.53;;;8.35;100.00
12879;BME280;20617;49.476;10.986;2024-02-04T03:41:27;99149.47;;;8.24;100.00
12879;BME280;20617;49.476;10.986;2024-02-04T03:43:29;99152.97;;;8.20;100.00
12879;BME280;20617;49.476;10.986;2024-02-04T03:45:30;99159.13;;;8.16;100.00
12879;BME280;20617;49.476;10.986;2024-02-04T03:47:33;99153.88;;;8.19;100.00
12879;BME280;20617;49.476;10.986;2024-02-04T03:49:34;99154.66;;;8.23;100.00
12879;BME280;20617;49.476;10.986;2024-02-04T03:51:34;99152.13;;;8.20;100.00
12879;BME280;20617;49.476;10.986;2024-02-04T03:53:35;99154.81;;;8.15;100.00
12879;BME280;20617;49.476;10.986;2024-02-04T03:55:36;99156.34;;;8.25;100.00
12879;BME280;20617;49.476;10.986;2024-02-04T03:57:36;99151.16;;;8.25;100.00
12879;BME280;20617;49.476;10.986;2024-02-04T03:59:37;99160.69;;;8.25;100.00
12879;BME280;20617;49.476;10.986;2024-02-04T04:01:38;99152.00;;;8.27;100.00
12879;BME280;20617;49.476;10.986;2024-02-04T04:03:42;99143.38;;;8.27;100.00
12879;BME280;20617;49.476;10.986;2024-02-04T04:05:42;99144.44;;;8.15;100.00
12879;BME280;20617;49.476;10.986;2024-02-04T04:07:43;99153.09;;;8.14;100.00
12879;BME280;20617;49.476;10.986;2024-02-04T04:09:44;99146.19;;;8.14;100.00
12879;BME280;20617;49.476;10.986;2024-02-04T04:11:44;99154.81;;;8.15;100.00
12879;BME280;20617;49.476;10.986;2024-02-04T04:13:45;99145.25;;;8.19;100.00
12879;BME280;20617;49.476;10.986;2024-02-04T04:15:46;99145.31;;;8.15;100.00
12879;BME280;20617;49.476;10.986;2024-02-04T04:17:47;99160.81;;;8.17;100.00
12879;BME280;20617;49.476;10.986;2024-02-04T04:19:50;99147.94;;;8.12;100.00
12879;BME280;20617;49.476;10.986;2024-02-04T04:21:51;99148.78;;;8.13;100.00
12879;BME280;20617;49.476;10.986;2024-02-04T04:23:51;99147.75;;;8.23;100.00
12879;BME280;20617;49.476;10.986;2024-02-04T04:25:52;99168.59;;;8.17;100.00
12879;BME280;20617;49.476;10.986;2024-02-04T04:27:53;99158.22;;;8.17;100.00
12879;BME280;20617;49.476;10.986;2024-02-04T04:29:53;99160.13;;;8.07;100.00
12879;BME280;20617;49.476;10.986;2024-02-04T04:31:54;99167.84;;;8.10;100.00
12879;BME280;20617;49.476;10.986;2024-02-04T04:33:55;99156.66;;;8.08;100.00
12879;BME280;20617;49.476;10.986;2024-02-04T04:35:58;99156.69;;;8.07;100.00
12879;BME280;20617;49.476;10.986;2024-02-04T04:37:59;99153.97;;;8.14;100.00
12879;BME280;20617;49.476;10.986;2024-02-04T04:40:00;99150.31;;;8.25;100.00
12879;BME280;20617;49.476;10.986;2024-02-04T04:42:01;99152.94;;;8.23;100.00
12879;BME280;20617;49.476;10.986;2024-02-04T04:44:01;99148.63;;;8.24;100.00
12879;BME280;20617;49.476;10.986;2024-02-04T04:46:02;99152.94;;;8.23;100.00
12879;BME280;20617;49.476;10.986;2024-02-04T04:48:04;99152.84;;;8.29;100.00
12879;BME280;20617;49.476;10.986;2024-02-04T04:50:05;99145.13;;;8.26;100.00
12879;BME280;20617;49.476;10.986;2024-02-04T04:52:09;99146.81;;;8.27;100.00
12879;BME280;20617;49.476;10.986;2024-02-04T04:54:09;99140.84;;;8.24;100.00
12879;BME280;20617;49.476;10.986;2024-02-04T04:56:10;99142.47;;;8.29;100.00
12879;BME280;20617;49.476;10.986;2024-02-04T04:58:11;99140.59;;;8.36;100.00
12879;BME280;20617;49.476;10.986;2024-02-04T05:00:13;99135.38;;;8.37;100.00
12879;BME280;20617;49.476;10.986;2024-02-04T05:02:14;99144.03;;;8.36;100.00
12879;BME280;20617;49.476;10.986;2024-02-04T05:04:16;99143.25;;;8.31;100.00
12879;BME280;20617;49.476;10.986;2024-02-04T05:06:16;99141.53;;;8.32;100.00
12879;BME280;20617;49.476;10.986;2024-02-04T05:08:20;99143.25;;;8.31;100.00
12879;BME280;20617;49.476;10.986;2024-02-04T05:10:20;99152.84;;;8.29;100.00
12879;BME280;20617;49.476;10.986;2024-02-04T05:12:21;99143.38;;;8.27;100.00
12879;BME280;20617;49.476;10.986;2024-02-04T05:14:22;99147.84;;;8.19;100.00
12879;BME280;20617;49.476;10.986;2024-02-04T05:16:22;99145.25;;;8.19;100.00
12879;BME280;20617;49.476;10.986;2024-02-04T05:18:23;99147.78;;;8.22;100.00
12879;BME280;20617;49.476;10.986;2024-02-04T05:20:24;99143.47;;;8.21;100.00
12879;BME280;20617;49.476;10.986;2024-02-04T05:22:24;99140.00;;;8.22;100.00
12879;BME280;20617;49.476;10.986;2024-02-04T05:24:28;99139.09;;;8.23;100.00
12879;BME280;20617;49.476;10.986;2024-02-04T05:26:29;99140.00;;;8.22;100.00
12879;BME280;20617;49.476;10.986;2024-02-04T05:28:29;99142.72;;;8.14;100.00
12879;BME280;20617;49.476;10.986;2024-02-04T05:30:30;99143.63;;;8.11;100.00
12879;BME280;20617;49.476;10.986;2024-02-04T05:32:31;99140.09;;;8.15;100.00
12879;BME280;20617;49.476;10.986;2024-02-04T05:34:31;99139.25;;;8.15;100.00
12879;BME280;20617;49.476;10.986;2024-02-04T05:36:32;99134.94;;;8.15;100.00
12879;BME280;20617;49.476;10.986;2024-02-04T05:38:33;99138.28;;;8.21;100.00
12879;BME280;20617;49.476;10.986;2024-02-04T05:40:36;99129.63;;;8.20;100.00
12879;BME280;20617;49.476;10.986;2024-02-04T05:42:37;99135.78;;;8.16;100.00
12879;BME280;20617;49.476;10.986;2024-02-04T05:44:37;99136.56;;;8.21;100.00
12879;BME280;20617;49.476;10.986;2024-02-04T05:46:38;99133.97;;;8.20;100.00
12879;BME280;20617;49.476;10.986;2024-02-04T05:48:39;99142.66;;;8.19;100.00
12879;BME280;20617;49.476;10.986;2024-02-04T05:50:40;99144.56;;;8.07;100.00
12879;BME280;20617;49.476;10.986;2024-02-04T05:52:41;99142.75;;;8.12;100.00
12879;BME280;20617;49.476;10.986;2024-02-04T05:54:41;99145.25;;;8.17;100.00
12879;BME280;20617;49.476;10.986;2024-02-04T05:56:45;99138.47;;;8.10;100.00
12879;BME280;20617;49.476;10.986;2024-02-04T05:58:45;99144.63;;;8.06;100.00
12879;BME280;20617;49.476;10.986;2024-02-04T06:00:46;99136.00;;;8.04;100.00
12879;BME280;20617;49.476;10.986;2024-02-04T06:02:47;99144.69;;;8.01;100.00
12879;BME280;20617;49.476;10.986;2024-02-04T06:04:48;99148.06;;;8.06;100.00
12879;BME280;20617;49.476;10.986;2024-02-04T06:06:48;99150.59;;;8.08;100.00
12879;BME280;20617;49.476;10.986;2024-02-04T06:08:49;99136.91;;;8.01;100.00
12879;BME280;20617;49.476;10.986;2024-02-04T06:10:50;99135.28;;;7.96;100.00
12879;BME280;20617;49.476;10.986;2024-02-04T06:12:53;99134.28;;;8.03;100.00
12879;BME280;20617;49.476;10.986;2024-02-04T06:14:54;99132.63;;;7.99;100.00
12879;BME280;20617;49.476;10.986;2024-02-04T06:16:54;99134.38;;;7.98;100.00
12879;BME280;20617;49.476;10.986;2024-02-04T06:18:55;99129.13;;;8.00;100.00
12879;BME280;20617;49.476;10.986;2024-02-04T06:20:56;99129.25;;;7.95;100.00
12879;BME280;20617;49.476;10.986;2024-02-04T06:22:56;99126.66;;;7.95;100.00
12879;BME280;20617;49.476;10.986;2024-02-04T06:24:57;99130.88;;;8.01;100.00
12879;BME280;20617;49.476;10.986;2024-02-04T06:26:58;99125.63;;;8.04;100.00
12879;BME280;20617;49.476;10.986;2024-02-04T06:29:01;99129.13;;;8.00;100.00
12879;BME280;20617;49.476;10.986;2024-02-04T06:31:02;99128.13;;;8.08;100.00
12879;BME280;20617;49.476;10.986;2024-02-04T06:33:03;99127.28;;;8.08;100.00
12879;BME280;20617;49.476;10.986;2024-02-04T06:35:04;99110.91;;;8.04;100.00
12879;BME280;20617;49.476;10.986;2024-02-04T06:37:05;99123.03;;;8.04;100.00
12879;BME280;20617;49.476;10.986;2024-02-04T06:39:06;99115.09;;;8.11;100.00
12879;BME280;20617;49.476;10.986;2024-02-04T06:41:07;99116.09;;;8.04;100.00
12879;BME280;20617;49.476;10.986;2024-02-04T06:43:07;99123.91;;;8.03;100.00
12879;BME280;20617;49.476;10.986;2024-02-04T06:45:11;99123.03;;;8.04;100.00
12879;BME280;20617;49.476;10.986;2024-02-04T06:47:12;99129.06;;;8.06;100.00
12879;BME280;20617;49.476;10.986;2024-02-04T06:49:12;99130.78;;;8.05;100.00
12879;BME280;20617;49.476;10.986;2024-02-04T06:51:13;99139.44;;;8.06;100.00
12879;BME280;20617;49.476;10.986;2024-02-04T06:53:14;99133.25;;;8.11;100.00
12879;BME280;20617;49.476;10.986;2024-02-04T06:55:15;99129.75;;;8.15;100.00
12879;BME280;20617;49.476;10.986;2024-02-04T06:57:15;99120.16;;;8.19;100.00
12879;BME280;20617;49.476;10.986;2024-02-04T06:59:16;99124.44;;;8.20;100.00
12879;BME280;20617;49.476;10.986;2024-02-04T07:01:19;99124.38;;;8.25;100.00
12879;BME280;20617;49.476;10.986;2024-02-04T07:03:20;99113.88;;;8.31;100.00
12879;BME280;20617;49.476;10.986;2024-02-04T07:05:21;99123.41;;;8.29;100.00
12879;BME280;20617;49.476;10.986;2024-02-04T07:07:21;99126.91;;;8.28;100.00
12879;BME280;20617;49.476;10.986;2024-02-04T07:09:22;99123.34;;;8.32;100.00
12879;BME280;20617;49.476;10.986;2024-02-04T07:11:23;99113.03;;;8.30;100.00
12879;BME280;20617;49.476;10.986;2024-02-04T07:13:23;99126.00;;;8.29;100.00
12879;BME280;20617;49.476;10.986;2024-02-04T07:15:24;99122.50;;;8.31;100.00
12879;BME280;20617;49.476;10.986;2024-02-04T07:17:27;99124.38;;;8.25;100.00
12879;BME280;20617;49.476;10.986;2024-02-04T07:19:28;99117.31;;;8.31;100.00
12879;BME280;20617;49.476;10.986;2024-02-04T07:21:29;99119.00;;;8.35;100.00
12879;BME280;20617;49.476;10.986;2024-02-04T07:23:30;99099.22;;;8.28;100.00
12879;BME280;20617;49.476;10.986;2024-02-04T07:25:30;99100.00;;;8.33;100.00
12879;BME280;20617;49.476;10.986;2024-02-04T07:27:31;99095.63;;;8.38;100.00
12879;BME280;20617;49.476;10.986;2024-02-04T07:29:32;99086.88;;;8.43;100.00
12879;BME280;20617;49.476;10.986;2024-02-04T07:31:32;99085.03;;;8.48;100.00
12879;BME280;20617;49.476;10.986;2024-02-04T07:33:36;99080.72;;;8.48;100.00
12879;BME280;20617;49.476;10.986;2024-02-04T07:35:36;99092.91;;;8.43;100.00
12879;BME280;20617;49.476;10.986;2024-02-04T07:37:37;99086.75;;;8.49;100.00
12879;BME280;20617;49.476;10.986;2024-02-04T07:39:38;99086.63;;;8.55;100.00
12879;BME280;20617;49.476;10.986;2024-02-04T07:41:39;99088.16;;;8.65;100.00
12879;BME280;20617;49.476;10.986;2024-02-04T07:43:39;99078.94;;;8.50;100.00
12879;BME280;20617;49.476;10.986;2024-02-04T07:45:40;99087.50;;;8.55;100.00
12879;BME280;20617;49.476;10.986;2024-02-04T07:47:41;99091.81;;;8.55;100.00
12879;BME280;20617;49.476;10.986;2024-02-04T07:49:53;99097.19;;;8.47;100.00
12879;BME280;20617;49.476;10.986;2024-02-04T07:51:54;99097.06;;;8.52;100.00
12879;BME280;20617;49.476;10.986;2024-02-04T07:53:57;99083.09;;;8.59;100.00
12879;BME280;20617;49.476;10.986;2024-02-04T07:55:58;99091.84;;;8.53;100.00
12879;BME280;20617;49.476;10.986;2024-02-04T07:58:00;99094.53;;;8.49;100.00
12879;BME280;20617;49.476;10.986;2024-02-04T08:00:01;99094.19;;;8.67;100.00
12879;BME280;20617;49.476;10.986;2024-02-04T08:02:05;99083.75;;;8.69;100.00
12879;BME280;20617;49.476;10.986;2024-02-04T08:04:08;99081.84;;;8.75;100.00
12879;BME280;20617;49.476;10.986;2024-02-04T08:06:11;99084.22;;;8.88;100.00
12879;BME280;20617;49.476;10.986;2024-02-04T08:08:12;99074.75;;;8.83;100.00
12879;BME280;20617;49.476;10.986;2024-02-04T08:10:13;99066.13;;;8.83;100.00
12879;BME280;20617;49.476;10.986;2024-02-04T08:12:14;99081.00;;;8.75;100.00
12879;BME280;20617;49.476;10.986;2024-02-04T08:14:14;99079.19;;;8.80;100.00
12879;BME280;20617;49.476;10.986;2024-02-04T08:16:15;99081.50;;;8.92;100.00
12879;BME280;20617;49.476;10.986;2024-02-04T08:18:16;99087.63;;;8.90;100.00
12879;BME280;20617;49.476;10.986;2024-02-04T08:20:17;99086.06;;;8.81;100.00
12879;BME280;20617;49.476;10.986;2024-02-04T08:22:21;99093.72;;;8.87;100.00
12879;BME280;20617;49.476;10.986;2024-02-04T08:24:21;99087.72;;;8.85;100.00
12879;BME280;20617;49.476;10.986;2024-02-04T08:26:22;99100.84;;;8.79;100.00
12879;BME280;20617;49.476;10.986;2024-02-04T08:28:23;99094.66;;;8.84;100.00
12879;BME280;20617;49.476;10.986;2024-02-04T08:30:24;99089.28;;;8.94;100.00
12879;BME280;20617;49.476;10.986;2024-02-04T08:32:25;99085.28;;;8.79;100.00
12879;BME280;20617;49.476;10.986;2024-02-04T08:34:25;99085.28;;;8.79;100.00
12879;BME280;20617;49.476;10.986;2024-02-04T08:36:26;99087.69;;;8.87;100.00
12879;BME280;20617;49.476;10.986;2024-02-04T08:38:29;99074.75;;;8.85;100.00
12879;BME280;20617;49.476;10.986;2024-02-04T08:40:30;99073.72;;;8.92;100.00
12879;BME280;20617;49.476;10.986;2024-02-04T08:42:31;99077.91;;;8.99;100.00
12879;BME280;20617;49.476;10.986;2024-02-04T08:44:31;99078.63;;;9.04;100.00
12879;BME280;20617;49.476;10.986;2024-02-04T08:46:32;99081.97;;;9.10;100.00
12879;BME280;20617;49.476;10.986;2024-02-04T08:48:33;99073.97;;;9.19;100.00
12879;BME280;20617;49.476;10.986;2024-02-04T08:50:33;99067.91;;;9.20;100.00
12879;BME280;20617;49.476;10.986;2024-02-04T08:52:34;99061.97;;;9.13;100.00
12879;BME280;20617;49.476;10.986;2024-02-04T08:54:37;99083.81;;;9.04;100.00
12879;BME280;20617;49.476;10.986;2024-02-04T08:56:38;99084.47;;;9.14;100.00
12879;BME280;20617;49.476;10.986;2024-02-04T08:58:39;99078.28;;;9.20;100.00
12879;BME280;20617;49.476;10.986;2024-02-04T09:00:39;99076.41;;;9.26;100.00
12879;BME280;20617;49.476;10.986;2024-02-04T09:02:40;99082.66;;;9.18;100.00
12879;BME280;20617;49.476;10.986;2024-02-04T09:04:41;99091.44;;;9.12;100.00
12879;BME280;20617;49.476;10.986;2024-02-04T09:06:42;99085.88;;;9.29;100.00
12879;BME280;20617;49.476;10.986;2024-02-04T09:08:42;99081.38;;;9.36;100.00
12879;BME280;20617;49.476;10.986;2024-02-04T09:10:46;99072.81;;;9.32;100.00
12879;BME280;20617;49.476;10.986;2024-02-04T09:12:46;99077.94;;;9.34;100.00
12879;BME280;20617;49.476;10.986;2024-02-04T09:14:47;99067.50;;;9.37;100.00
12879;BME280;20617;49.476;10.986;2024-02-04T09:16:48;99062.94;;;9.46;100.00
12879;BME280;20617;49.476;10.986;2024-02-04T09:18:48;99065.41;;;9.51;100.00
12879;BME280;20617;49.476;10.986;2024-02-04T09:23:01;99058.41;;;9.53;100.00
12879;BME280;20617;49.476;10.986;2024-02-04T09:25:03;99058.00;;;9.70;100.00
12879;BME280;20617;49.476;10.986;2024-02-04T09:27:06;99049.13;;;9.77;100.00
12879;BME280;20617;49.476;10.986;2024-02-04T09:29:07;99050.22;;;9.68;100.00
12879;BME280;20617;49.476;10.986;2024-02-04T09:31:08;99044.22;;;9.66;100.00
12879;BME280;20617;49.476;10.986;2024-02-04T09:33:09;99041.31;;;9.79;100.00
12879;BME280;20617;49.476;10.986;2024-02-04T09:35:10;99041.94;;;9.54;100.00
12879;BME280;20617;49.476;10.986;2024-02-04T09:37:11;99018.66;;;9.49;100.00
12879;BME280;20617;49.476;10.986;2024-02-04T09:39:11;99026.81;;;9.68;100.00
12879;BME280;20617;49.476;10.986;2024-02-04T09:41:12;99043.22;;;9.72;100.00
12879;BME280;20617;49.476;10.986;2024-02-04T09:43:15;99030.38;;;9.66;100.00
12879;BME280;20617;49.476;10.986;2024-02-04T09:45:16;99030.94;;;9.77;100.00
12879;BME280;20617;49.476;10.986;2024-02-04T09:47:17;99030.84;;;9.80;100.00
12879;BME280;20617;49.476;10.986;2024-02-04T09:49:18;99032.44;;;9.86;100.00
12879;BME280;20617;49.476;10.986;2024-02-04T09:51:20;99032.66;;;9.78;100.00
12879;BME280;20617;49.476;10.986;2024-02-04T09:53:21;99036.28;;;9.71;100.00
12879;BME280;20617;49.476;10.986;2024-02-04T09:55:28;99029.97;;;9.81;100.00
12879;BME280;20617;49.476;10.986;2024-02-04T09:57:29;99027.91;;;9.60;100.00
12879;BME280;20617;49.476;10.986;2024-02-04T09:59:33;99030.09;;;9.77;100.00
12879;BME280;20617;49.476;10.986;2024-02-04T10:01:35;99022.81;;;9.89;100.00
12879;BME280;20617;49.476;10.986;2024-02-04T10:03:35;99021.91;;;9.92;100.00
12879;BME280;20617;49.476;10.986;2024-02-04T10:05:36;99021.91;;;9.92;100.00
12879;BME280;20617;49.476;10.986;2024-02-04T10:07:37;99014.88;;;9.94;100.00
12879;BME280;20617;49.476;10.986;2024-02-04T10:09:38;99021.63;;;10.01;100.00
12879;BME280;20617;49.476;10.986;2024-02-04T10:11:39;99011.41;;;9.95;100.00
12879;BME280;20617;49.476;10.986;2024-02-04T10:13:44;99013.34;;;9.87;100.00
12879;BME280;20617;49.476;10.986;2024-02-04T10:15:47;99023.06;;;9.80;100.00
12879;BME280;20617;49.476;10.986;2024-02-04T10:17:48;99022.19;;;9.80;100.00
12879;BME280;20617;49.476;10.986;2024-02-04T10:19:49;99026.81;;;9.70;100.00
12879;BME280;20617;49.476;10.986;2024-02-04T10:21:58;99009.28;;;9.77;100.00
12879;BME280;20617;49.476;10.986;2024-02-04T10:23:58;99008.94;;;9.89;100.00
12879;BME280;20617;49.476;10.986;2024-02-04T10:25:59;99010.69;;;9.88;100.00
12879;BME280;20617;49.476;10.986;2024-02-04T10:28:00;98997.41;;;9.99;100.00
12879;BME280;20617;49.476;10.986;2024-02-04T10:30:01;98983.56;;;9.98;100.00
12879;BME280;20617;49.476;10.986;2024-02-04T10:32:05;99001.28;;;9.84;100.00
12879;BME280;20617;49.476;10.986;2024-02-04T10:34:06;98988.41;;;9.80;100.00
12879;BME280;20617;49.476;10.986;2024-02-04T10:36:07;98971.44;;;9.97;100.00
12879;BME280;20617;49.476;10.986;2024-02-04T10:38:08;98976.69;;;9.96;100.00
12879;BME280;20617;49.476;10.986;2024-02-04T10:40:09;98980.91;;;10.00;100.00